createdAt,value
2023-02-27T00:00:44.601Z,66.15
2023-02-27T00:03:11.314Z,66.57
2023-02-27T00:05:37.909Z,66.25
2023-02-27T00:08:06.946Z,66.42
2023-02-27T00:10:35.770Z,66.34
2023-02-27T00:13:02.380Z,66.64
2023-02-27T00:15:32.240Z,66.92
2023-02-27T00:17:59.498Z,67.17
2023-02-27T00:20:26.679Z,67.12
2023-02-27T00:22:55.619Z,67.26
2023-02-27T00:25:24.609Z,66.85
2023-02-27T00:27:51.434Z,66.79
2023-02-27T00:30:18.080Z,66.97
2023-02-27T00:32:44.921Z,66.93
2023-02-27T00:35:14.991Z,67.23
2023-02-27T00:37:44.134Z,66.97
2023-02-27T00:40:11.476Z,66.40
2023-02-27T00:42:38.441Z,66.28
2023-02-27T00:45:08.265Z,66.45
2023-02-27T00:47:38.421Z,66.08
2023-02-27T00:50:06.032Z,66.16
2023-02-27T00:52:33.935Z,66.60
2023-02-27T00:55:01.146Z,66.81
2023-02-27T00:57:28.156Z,66.81
2023-02-27T00:59:54.765Z,66.86
2023-02-27T01:02:21.521Z,67.32
2023-02-27T01:04:53.965Z,67.00
2023-02-27T01:07:23.185Z,67.13
2023-02-27T01:09:51.966Z,67.39
2023-02-27T01:12:18.728Z,66.80
2023-02-27T01:14:45.367Z,66.75
2023-02-27T01:17:14.489Z,67.12
2023-02-27T01:19:41.096Z,66.83
2023-02-27T01:22:07.653Z,66.87
2023-02-27T01:24:36.935Z,67.30
2023-02-27T01:27:03.532Z,66.90
2023-02-27T01:29:30.250Z,67.37
2023-02-27T01:31:56.859Z,67.33
2023-02-27T01:34:26.506Z,67.13
2023-02-27T01:36:53.132Z,67.61
2023-02-27T01:39:20.898Z,67.39
2023-02-27T01:41:49.762Z,67.00
2023-02-27T01:44:18.662Z,67.08
2023-02-27T01:46:45.324Z,67.68
2023-02-27T01:49:24.278Z,67.80
2023-02-27T01:52:11.957Z,67.34
2023-02-27T01:54:44.781Z,67.34
2023-02-27T01:57:11.585Z,67.81
2023-02-27T01:59:41.156Z,68.04
2023-02-27T02:02:16.955Z,68.53
2023-02-27T02:04:44.412Z,68.38
2023-02-27T02:07:14.785Z,68.57
2023-02-27T02:09:51.353Z,68.51
2023-02-27T02:12:27.203Z,68.72
2023-02-27T02:14:53.827Z,69.03
2023-02-27T02:17:29.399Z,69.16
2023-02-27T02:20:14.693Z,69.06
2023-02-27T02:23:18.865Z,68.65
2023-02-27T02:25:54.840Z,69.28
2023-02-27T02:28:55.285Z,69.32
2023-02-27T02:31:40.824Z,69.05
2023-02-27T02:34:10.474Z,68.98
2023-02-27T02:36:42.638Z,68.72
2023-02-27T02:39:27.412Z,69.52
2023-02-27T02:42:03.972Z,69.29
2023-02-27T02:44:33.554Z,69.24
2023-02-27T02:47:00.094Z,69.58
2023-02-27T02:49:35.956Z,69.20
2023-02-27T02:52:08.092Z,68.85
2023-02-27T02:54:45.419Z,68.96
2023-02-27T02:57:19.657Z,68.75
2023-02-27T03:00:06.421Z,68.64
2023-02-27T03:02:44.954Z,68.68
2023-02-27T03:05:20.568Z,68.69
2023-02-27T03:08:03.039Z,68.94
2023-02-27T03:10:59.784Z,68.62
2023-02-27T03:13:30.944Z,68.51
2023-02-27T03:16:23.739Z,69.84
2023-02-27T03:18:55.722Z,69.54
2023-02-27T03:21:30.085Z,69.15
2023-02-27T03:24:02.533Z,69.37
2023-02-27T03:26:36.558Z,69.45
2023-02-27T03:29:14.903Z,69.67
2023-02-27T03:31:57.319Z,69.27
2023-02-27T03:34:39.509Z,69.93
2023-02-27T03:37:27.754Z,70.26
2023-02-27T03:40:06.746Z,70.53
2023-02-27T03:42:40.388Z,70.19
2023-02-27T03:45:19.504Z,70.75
2023-02-27T03:47:46.748Z,70.63
2023-02-27T03:50:13.874Z,70.11
2023-02-27T03:52:40.894Z,70.54
2023-02-27T03:55:20.980Z,71.29
2023-02-27T03:57:49.322Z,70.56
2023-02-27T04:00:22.123Z,71.15
2023-02-27T04:02:54.640Z,71.09
2023-02-27T04:05:22.073Z,71.29
2023-02-27T04:08:15.628Z,71.04
2023-02-27T04:10:56.343Z,71.21
2023-02-27T04:13:22.844Z,71.24
2023-02-27T04:16:23.393Z,71.16
2023-02-27T04:18:56.929Z,70.87
2023-02-27T04:21:28.814Z,71.70
2023-02-27T04:24:00.357Z,71.01
2023-02-27T04:26:32.977Z,71.60
2023-02-27T04:29:07.920Z,71.31
2023-02-27T04:32:17.592Z,71.37
2023-02-27T04:34:55.801Z,71.43
2023-02-27T04:37:48.782Z,72.03
2023-02-27T04:40:24.344Z,72.16
2023-02-27T04:42:55.040Z,71.56
2023-02-27T04:45:24.555Z,71.48
2023-02-27T04:48:01.551Z,71.70
2023-02-27T04:50:34.727Z,71.66
2023-02-27T04:53:12.007Z,71.74
2023-02-27T04:55:47.254Z,71.27
2023-02-27T04:58:13.814Z,71.23
2023-02-27T05:00:48.174Z,70.81
2023-02-27T05:03:24.182Z,70.40
2023-02-27T05:05:55.469Z,70.67
2023-02-27T05:08:29.056Z,70.99
2023-02-27T05:11:07.916Z,71.28
2023-02-27T05:13:42.163Z,70.68
2023-02-27T05:16:14.330Z,70.93
2023-02-27T05:18:40.924Z,70.58
2023-02-27T05:21:30.827Z,70.91
2023-02-27T05:24:38.974Z,71.19
2023-02-27T05:27:24.042Z,70.93
2023-02-27T05:29:52.935Z,70.53
2023-02-27T05:32:32.071Z,70.38
2023-02-27T05:35:22.045Z,70.83
2023-02-27T05:37:53.956Z,70.11
2023-02-27T05:40:28.294Z,70.53
2023-02-27T05:43:05.674Z,70.78
2023-02-27T05:45:36.573Z,70.17
2023-02-27T05:48:15.034Z,71.00
2023-02-27T05:50:45.006Z,70.77
2023-02-27T05:53:17.539Z,71.75
2023-02-27T05:55:51.068Z,71.67
2023-02-27T05:58:35.136Z,72.33
2023-02-27T06:01:06.041Z,73.09
2023-02-27T06:03:35.381Z,73.20
2023-02-27T06:06:05.255Z,72.69
2023-02-27T06:08:32.693Z,73.73
2023-02-27T06:11:01.834Z,73.92
2023-02-27T06:13:30.818Z,73.35
2023-02-27T06:15:57.430Z,73.37
2023-02-27T06:18:24.091Z,73.30
2023-02-27T06:20:53.867Z,73.27
2023-02-27T06:23:20.502Z,73.75
2023-02-27T06:25:49.574Z,73.90
2023-02-27T06:28:17.955Z,73.39
2023-02-27T06:30:47.441Z,73.24
2023-02-27T06:33:26.878Z,73.95
2023-02-27T06:35:58.586Z,73.95
2023-02-27T06:38:26.819Z,74.21
2023-02-27T06:40:58.759Z,74.42
2023-02-27T06:44:10.869Z,74.28
2023-02-27T06:46:40.157Z,73.89
2023-02-27T06:49:10.281Z,73.52
2023-02-27T06:51:39.986Z,73.54
2023-02-27T06:54:10.582Z,74.04
2023-02-27T06:56:37.239Z,74.29
2023-02-27T06:59:03.847Z,73.90
2023-02-27T07:01:30.672Z,74.17
2023-02-27T07:03:57.653Z,73.95
2023-02-27T07:07:33.329Z,73.45
2023-02-27T07:09:12.534Z,73.01
2023-02-27T07:11:40.077Z,73.45
2023-02-27T07:14:07.773Z,73.09
2023-02-27T07:16:34.740Z,73.12
2023-02-27T07:19:19.327Z,73.65
2023-02-27T07:21:46.762Z,72.73
2023-02-27T07:24:16.139Z,72.93
2023-02-27T07:26:48.372Z,73.22
2023-02-27T07:29:20.524Z,73.50
2023-02-27T07:32:07.320Z,72.98
2023-02-27T07:34:38.388Z,73.84
2023-02-27T07:37:05.568Z,73.21
2023-02-27T07:39:35.736Z,73.21
2023-02-27T07:42:02.823Z,73.42
2023-02-27T07:44:30.723Z,73.01
2023-02-27T07:46:57.971Z,72.71
2023-02-27T07:49:31.289Z,72.66
2023-02-27T07:52:00.797Z,72.26
2023-02-27T07:54:31.330Z,72.18
2023-02-27T07:56:58.861Z,72.49
2023-02-27T07:59:25.530Z,72.67
2023-02-27T08:01:54.792Z,72.66
2023-02-27T08:04:21.899Z,72.48
2023-02-27T08:06:48.608Z,72.32
2023-02-27T08:09:15.540Z,72.33
2023-02-27T08:11:42.177Z,72.33
2023-02-27T08:14:09.226Z,72.32
2023-02-27T08:16:38.322Z,72.18
2023-02-27T08:19:05.112Z,72.07
2023-02-27T08:21:32.157Z,72.52
2023-02-27T08:24:00.108Z,72.64
2023-02-27T08:26:27.995Z,71.90
2023-02-27T08:28:55.805Z,71.73
2023-02-27T08:31:24.034Z,71.91
2023-02-27T08:33:58.084Z,72.26
2023-02-27T08:36:34.439Z,72.00
2023-02-27T08:39:02.227Z,71.88
2023-02-27T08:41:29.883Z,72.04
2023-02-27T08:43:57.837Z,71.51
2023-02-27T08:46:25.289Z,71.99
2023-02-27T08:48:52.971Z,71.48
2023-02-27T08:51:19.999Z,71.47
2023-02-27T08:53:47.584Z,71.34
2023-02-27T08:56:15.532Z,70.92
2023-02-27T08:58:43.627Z,71.30
2023-02-27T09:01:11.088Z,70.66
2023-02-27T09:03:38.719Z,71.07
2023-02-27T09:06:05.998Z,70.40
2023-02-27T09:08:34.100Z,70.53
2023-02-27T09:11:02.380Z,70.23
2023-02-27T09:13:29.483Z,69.68
2023-02-27T09:15:56.934Z,66.45
2023-02-27T09:18:23.612Z,63.31
2023-02-27T09:20:51.999Z,62.64
2023-02-27T09:23:21.107Z,61.79
2023-02-27T09:25:48.037Z,61.44
2023-02-27T09:28:15.430Z,61.79
2023-02-27T09:30:44.447Z,61.84
2023-02-27T09:33:11.077Z,61.90
2023-02-27T09:35:37.741Z,61.88
2023-02-27T09:38:04.734Z,61.56
2023-02-27T09:40:37.816Z,61.27
2023-02-27T09:43:14.391Z,61.78
2023-02-27T09:45:42.371Z,62.00
2023-02-27T09:48:33.379Z,61.89
2023-02-27T09:51:03.583Z,62.01
2023-02-27T09:53:40.251Z,62.11
2023-02-27T09:56:15.540Z,62.08
2023-02-27T09:59:01.215Z,61.37
2023-02-27T10:01:35.350Z,62.07
2023-02-27T10:04:26.586Z,61.24
2023-02-27T10:06:58.797Z,60.97
2023-02-27T10:10:21.051Z,60.95
2023-02-27T10:13:15.644Z,60.96
2023-02-27T10:15:50.692Z,60.73
2023-02-27T10:18:58.314Z,61.75
2023-02-27T10:21:50.429Z,61.53
2023-02-27T10:24:19.204Z,61.24
2023-02-27T10:26:46.260Z,61.49
2023-02-27T10:29:29.431Z,61.03
2023-02-27T10:32:35.232Z,61.07
2023-02-27T10:35:24.879Z,61.25
2023-02-27T10:37:59.171Z,61.32
2023-02-27T10:40:26.977Z,61.05
2023-02-27T10:42:56.702Z,60.68
2023-02-27T10:45:25.909Z,60.94
2023-02-27T10:47:55.441Z,61.08
2023-02-27T10:50:36.115Z,60.08
2023-02-27T10:53:17.203Z,60.59
2023-02-27T10:55:50.551Z,59.76
2023-02-27T10:58:23.140Z,59.62
2023-02-27T11:01:00.703Z,59.56
2023-02-27T11:03:50.524Z,59.42
2023-02-27T11:06:27.905Z,59.07
2023-02-27T11:09:33.979Z,59.53
2023-02-27T11:12:28.180Z,58.44
2023-02-27T11:15:00.141Z,57.96
2023-02-27T11:17:32.837Z,57.42
2023-02-27T11:20:01.341Z,57.83
2023-02-27T11:22:31.085Z,57.15
2023-02-27T11:25:27.048Z,57.73
2023-02-27T11:28:32.010Z,57.03
2023-02-27T11:31:06.344Z,56.76
2023-02-27T11:33:40.413Z,57.24
2023-02-27T11:36:10.131Z,57.27
2023-02-27T11:38:36.841Z,57.59
2023-02-27T11:41:09.599Z,58.00
2023-02-27T11:44:05.894Z,58.21
2023-02-27T11:46:54.754Z,58.04
2023-02-27T11:49:35.453Z,58.05
2023-02-27T11:52:25.689Z,58.05
2023-02-27T11:54:59.845Z,58.20
2023-02-27T11:57:41.246Z,57.95
2023-02-27T12:00:22.961Z,57.25
2023-02-27T12:03:24.097Z,56.71
2023-02-27T12:06:09.998Z,56.02
2023-02-27T12:08:56.459Z,55.52
2023-02-27T12:11:28.807Z,55.39
2023-02-27T12:14:44.641Z,54.87
2023-02-27T12:17:54.301Z,54.17
2023-02-27T12:20:33.706Z,54.20
2023-02-27T12:23:07.229Z,54.00
2023-02-27T12:25:50.153Z,54.23
2023-02-27T12:28:43.181Z,54.23
2023-02-27T12:31:37.196Z,53.71
2023-02-27T12:34:30.559Z,52.62
2023-02-27T12:41:06.489Z,52.17
2023-02-27T12:44:12.958Z,51.99
2023-02-27T12:47:02.743Z,51.92
2023-02-27T12:49:58.540Z,53.07
2023-02-27T12:53:02.809Z,53.35
2023-02-27T12:55:40.593Z,53.22
2023-02-27T12:58:40.390Z,53.31
2023-02-27T13:01:46.004Z,54.14
2023-02-27T13:04:25.891Z,54.18
2023-02-27T13:07:10.365Z,53.88
2023-02-27T13:09:59.424Z,53.57
2023-02-27T13:12:44.248Z,52.49
2023-02-27T13:15:34.737Z,52.54
2023-02-27T13:18:30.726Z,51.83
2023-02-27T13:21:08.305Z,52.39
2023-02-27T13:23:56.510Z,53.05
2023-02-27T13:26:37.722Z,52.54
2023-02-27T13:29:13.022Z,52.56
2023-02-27T13:32:02.409Z,52.67
2023-02-27T13:34:52.438Z,52.76
2023-02-27T13:37:19.425Z,52.72
2023-02-27T13:39:54.813Z,52.94
2023-02-27T13:42:34.050Z,52.55
2023-02-27T13:45:03.261Z,52.67
2023-02-27T13:47:42.547Z,53.20
2023-02-27T13:50:18.633Z,52.90
2023-02-27T13:52:47.280Z,52.86
2023-02-27T13:55:43.538Z,53.20
2023-02-27T13:58:19.530Z,53.39
2023-02-27T14:01:06.074Z,53.44
2023-02-27T14:03:36.413Z,53.15
2023-02-27T14:06:10.659Z,52.63
2023-02-27T14:08:50.798Z,52.38
2023-02-27T14:11:45.214Z,52.33
2023-02-27T14:14:45.768Z,52.33
2023-02-27T14:17:38.626Z,52.07
2023-02-27T14:20:31.905Z,52.14
2023-02-27T14:23:17.607Z,52.55
2023-02-27T14:25:53.382Z,52.43
2023-02-27T14:28:41.982Z,52.75
2023-02-27T14:31:32.183Z,52.61
2023-02-27T14:34:10.031Z,52.54
2023-02-27T14:36:45.617Z,52.41
2023-02-27T14:39:34.960Z,52.41
2023-02-27T14:42:08.406Z,52.34
2023-02-27T14:44:43.886Z,52.29
2023-02-27T14:47:19.171Z,52.22
2023-02-27T14:49:51.118Z,52.47
2023-02-27T14:52:32.988Z,52.58
2023-02-27T14:55:37.270Z,53.06
2023-02-27T14:58:22.366Z,53.05
2023-02-27T15:01:21.572Z,53.04
2023-02-27T15:03:51.921Z,52.90
2023-02-27T15:06:27.769Z,52.92
2023-02-27T15:09:02.113Z,52.93
2023-02-27T15:11:57.413Z,53.10
2023-02-27T15:14:40.419Z,52.77
2023-02-27T15:17:19.430Z,53.04
2023-02-27T15:20:04.362Z,53.02
2023-02-27T15:22:39.986Z,52.55
2023-02-27T15:25:27.126Z,52.59
2023-02-27T15:28:01.179Z,52.57
2023-02-27T15:30:40.387Z,52.28
2023-02-27T15:33:17.406Z,52.09
2023-02-27T15:35:50.400Z,52.68
2023-02-27T15:38:35.146Z,52.28
2023-02-27T15:41:08.835Z,52.73
2023-02-27T15:43:38.619Z,52.71
2023-02-27T15:46:06.612Z,53.04
2023-02-27T15:48:40.446Z,52.63
2023-02-27T15:51:19.663Z,53.08
2023-02-27T15:53:56.253Z,53.06
2023-02-27T15:56:33.388Z,53.06
2023-02-27T15:59:13.500Z,53.01
2023-02-27T16:01:43.567Z,53.02
2023-02-27T16:04:24.811Z,53.07
2023-02-27T16:07:03.525Z,53.48
2023-02-27T16:09:35.934Z,53.27
2023-02-27T16:12:21.963Z,53.70
2023-02-27T16:14:55.968Z,53.43
2023-02-27T16:17:32.454Z,53.61
2023-02-27T16:20:46.684Z,53.83
2023-02-27T16:23:29.383Z,53.64
2023-02-27T16:26:09.537Z,53.91
2023-02-27T16:28:58.074Z,53.86
2023-02-27T16:31:43.523Z,53.73
2023-02-27T16:34:16.170Z,53.75
2023-02-27T16:36:59.295Z,53.68
2023-02-27T16:39:39.445Z,54.22
2023-02-27T16:42:06.143Z,54.58
2023-02-27T16:44:32.988Z,54.06
2023-02-27T16:47:06.395Z,54.22
2023-02-27T16:49:53.611Z,54.19
2023-02-27T16:52:26.512Z,55.03
2023-02-27T16:55:06.046Z,55.11
2023-02-27T16:57:33.965Z,55.13
2023-02-27T17:00:01.410Z,55.46
2023-02-27T17:02:28.624Z,55.57
2023-02-27T17:05:09.035Z,55.75
2023-02-27T17:07:37.460Z,56.25
2023-02-27T17:10:14.108Z,55.45
2023-02-27T17:12:45.052Z,56.01
2023-02-27T17:15:12.027Z,55.45
2023-02-27T17:17:38.798Z,56.08
2023-02-27T17:20:07.372Z,56.14
2023-02-27T17:22:41.038Z,56.47
2023-02-27T17:25:10.531Z,56.37
2023-02-27T17:27:38.189Z,56.36
2023-02-27T17:30:06.473Z,56.08
2023-02-27T17:32:34.817Z,56.11
2023-02-27T17:35:01.772Z,56.49
2023-02-27T17:37:28.567Z,56.01
2023-02-27T17:39:55.436Z,56.36
2023-02-27T17:42:27.012Z,56.59
2023-02-27T17:44:53.670Z,56.29
2023-02-27T17:47:20.432Z,56.58
2023-02-27T17:49:47.623Z,56.57
2023-02-27T17:52:15.138Z,57.50
2023-02-27T17:54:41.807Z,56.75
2023-02-27T18:01:15.785Z,58.23
2023-02-27T18:03:45.863Z,58.32
2023-02-27T18:06:14.997Z,57.77
2023-02-27T18:08:44.593Z,57.84
2023-02-27T18:11:13.109Z,58.29
2023-02-27T18:13:43.348Z,58.47
2023-02-27T18:16:12.680Z,58.23
2023-02-27T18:18:40.774Z,58.22
2023-02-27T18:21:11.506Z,58.90
2023-02-27T18:23:38.245Z,59.50
2023-02-27T18:26:05.496Z,58.63
2023-02-27T18:28:32.776Z,59.13
2023-02-27T18:30:59.436Z,59.17
2023-02-27T18:33:27.513Z,59.83
2023-02-27T18:35:54.798Z,60.07
2023-02-27T18:38:21.418Z,60.27
2023-02-27T18:40:50.569Z,60.35
2023-02-27T18:43:19.761Z,60.97
2023-02-27T18:45:48.980Z,61.35
2023-02-27T18:48:17.944Z,61.44
2023-02-27T18:50:44.685Z,61.73
2023-02-27T18:53:11.402Z,61.23
2023-02-27T18:55:38.675Z,61.65
2023-02-27T18:58:06.224Z,61.69
2023-02-27T19:00:33.142Z,61.50
2023-02-27T19:03:04.318Z,62.19
2023-02-27T19:05:31.054Z,61.67
2023-02-27T19:07:58.055Z,62.51
2023-02-27T19:10:24.687Z,62.65
2023-02-27T19:12:51.785Z,62.51
2023-02-27T19:15:18.735Z,62.72
2023-02-27T19:17:46.806Z,62.82
2023-02-27T19:20:16.623Z,62.53
2023-02-27T19:22:45.782Z,63.10
2023-02-27T19:25:17.278Z,62.51
2023-02-27T19:27:46.061Z,62.62
2023-02-27T19:30:14.606Z,62.70
2023-02-27T19:32:43.768Z,63.24
2023-02-27T19:35:15.314Z,62.43
2023-02-27T19:37:48.207Z,62.45
2023-02-27T19:40:15.929Z,62.50
2023-02-27T19:42:44.804Z,62.32
2023-02-27T19:45:11.587Z,62.54
2023-02-27T19:47:40.712Z,62.91
2023-02-27T19:50:08.078Z,62.43
2023-02-27T19:52:36.390Z,62.53
2023-02-27T19:55:05.706Z,62.57
2023-02-27T19:57:34.804Z,62.71
2023-02-27T20:00:01.486Z,62.84
2023-02-27T20:02:28.180Z,63.20
2023-02-27T20:04:54.873Z,63.57
2023-02-27T20:07:21.995Z,63.25
2023-02-27T20:09:50.882Z,63.67
2023-02-27T20:12:19.934Z,63.24
2023-02-27T20:14:48.823Z,63.57
2023-02-27T20:17:15.641Z,63.54
2023-02-27T20:19:42.232Z,63.29
2023-02-27T20:22:08.939Z,63.77
2023-02-27T20:24:35.650Z,63.71
2023-02-27T20:27:04.815Z,63.67
2023-02-27T20:29:31.506Z,63.53
2023-02-27T20:31:58.406Z,63.25
2023-02-27T20:34:28.612Z,63.29
2023-02-27T20:36:58.240Z,64.03
2023-02-27T20:39:25.166Z,63.66
2023-02-27T20:41:51.896Z,63.62
2023-02-27T20:44:18.535Z,63.90
2023-02-27T20:46:49.406Z,64.47
2023-02-27T20:49:17.015Z,64.41
2023-02-27T20:51:44.557Z,64.24
2023-02-27T20:54:16.536Z,65.02
2023-02-27T20:56:43.712Z,65.41
2023-02-27T20:59:14.847Z,65.15
2023-02-27T21:01:43.406Z,65.16
2023-02-27T21:04:10.331Z,65.48
2023-02-27T21:06:37.296Z,65.46
2023-02-27T21:09:08.557Z,65.41
2023-02-27T21:11:37.632Z,65.65
2023-02-27T21:14:11.291Z,65.99
2023-02-27T21:16:41.842Z,66.08
2023-02-27T21:19:08.503Z,65.66
2023-02-27T21:21:37.476Z,67.53
2023-02-27T21:24:06.784Z,67.24
2023-02-27T21:26:38.510Z,67.05
2023-02-27T21:29:17.109Z,66.39
2023-02-27T21:31:45.827Z,66.46
2023-02-27T21:34:17.458Z,66.23
2023-02-27T21:36:45.094Z,66.38
2023-02-27T21:39:17.597Z,66.72
2023-02-27T21:41:44.940Z,66.32
2023-02-27T21:44:17.268Z,66.70
2023-02-27T21:46:45.220Z,67.10
2023-02-27T21:49:23.764Z,66.97
2023-02-27T21:51:51.048Z,67.07
2023-02-27T21:54:18.440Z,67.25
2023-02-27T21:56:48.376Z,67.17
2023-02-27T21:59:16.079Z,67.83
2023-02-27T22:01:47.291Z,67.12
2023-02-27T22:04:14.985Z,67.66
2023-02-27T22:06:41.572Z,67.80
2023-02-27T22:09:08.152Z,67.26
2023-02-27T22:11:35.430Z,67.41
2023-02-27T22:14:03.165Z,67.51
2023-02-27T22:16:32.248Z,67.36
2023-02-27T22:19:01.318Z,67.51
2023-02-27T22:21:30.648Z,67.52
2023-02-27T22:23:57.998Z,67.10
2023-02-27T22:26:28.288Z,67.56
2023-02-27T22:28:59.375Z,67.91
2023-02-27T22:31:34.746Z,68.09
2023-02-27T22:34:08.937Z,68.12
2023-02-27T22:36:36.493Z,67.58
2023-02-27T22:39:04.035Z,67.85
2023-02-27T22:41:35.259Z,67.47
2023-02-27T22:44:07.369Z,67.60
2023-02-27T22:46:39.533Z,67.12
2023-02-27T22:49:20.289Z,67.47
2023-02-27T22:51:50.833Z,67.16
2023-02-27T22:54:24.318Z,66.61
2023-02-27T22:56:58.045Z,67.29
2023-02-27T22:59:26.228Z,66.85
2023-02-27T23:01:55.270Z,67.12
2023-02-27T23:04:27.185Z,66.96
2023-02-27T23:06:56.946Z,67.11
2023-02-27T23:09:27.358Z,66.65
2023-02-27T23:11:55.087Z,67.39
2023-02-27T23:14:22.521Z,67.52
2023-02-27T23:16:51.761Z,67.37
2023-02-27T23:19:20.400Z,67.58
2023-02-27T23:21:47.619Z,68.05
2023-02-27T23:24:17.222Z,68.11
2023-02-27T23:26:46.971Z,68.50
2023-02-27T23:29:14.111Z,68.58
2023-02-27T23:31:43.550Z,68.46
2023-02-27T23:34:13.057Z,68.70
2023-02-27T23:36:39.733Z,68.83
2023-02-27T23:39:07.190Z,68.94
2023-02-27T23:41:36.077Z,68.85
2023-02-27T23:44:21.206Z,68.62
2023-02-27T23:46:50.224Z,68.71
2023-02-27T23:49:16.867Z,69.33
2023-02-27T23:51:43.488Z,69.54
2023-02-27T23:54:10.653Z,69.65
2023-02-27T23:56:37.405Z,69.59
2023-02-27T23:59:05.986Z,69.82
